createdAt,value
2023-04-27T00:02:12.931Z,3.51
2023-04-27T00:05:22.623Z,3.52
2023-04-27T00:08:28.171Z,3.56
2023-04-27T00:12:15.371Z,3.55
2023-04-27T00:15:39.795Z,3.50
2023-04-27T00:18:47.100Z,3.46
2023-04-27T00:21:55.455Z,3.45
2023-04-27T00:25:01.874Z,3.46
2023-04-27T00:28:08.105Z,3.45
2023-04-27T00:31:14.457Z,3.38
2023-04-27T00:34:19.984Z,3.32
2023-04-27T00:37:29.960Z,3.22
2023-04-27T00:40:35.727Z,3.12
2023-04-27T00:43:47.314Z,3.11
2023-04-27T00:46:53.046Z,3.04
2023-04-27T00:49:59.632Z,2.92
2023-04-27T00:53:09.823Z,2.73
2023-04-27T00:56:16.699Z,2.80
2023-04-27T00:59:23.565Z,2.84
2023-04-27T01:02:33.201Z,2.88
2023-04-27T01:05:41.081Z,2.92
2023-04-27T01:08:50.320Z,2.94
2023-04-27T01:11:56.309Z,2.95
2023-04-27T01:15:03.299Z,2.84
2023-04-27T01:18:09.658Z,2.80
2023-04-27T01:21:16.209Z,2.52
2023-04-27T01:24:24.428Z,2.79
2023-04-27T01:27:30.773Z,2.79
2023-04-27T01:30:36.278Z,2.76
2023-04-27T01:33:43.229Z,2.77
2023-04-27T01:36:48.875Z,2.77
2023-04-27T01:39:58.278Z,2.75
2023-04-27T01:43:04.101Z,2.75
2023-04-27T01:46:11.845Z,2.76
2023-04-27T01:49:17.687Z,2.76
2023-04-27T01:52:24.002Z,2.70
2023-04-27T01:55:32.482Z,2.58
2023-04-27T01:58:38.853Z,2.54
2023-04-27T02:01:44.365Z,2.53
2023-04-27T02:04:51.056Z,2.53
2023-04-27T02:07:57.989Z,2.41
2023-04-27T02:11:07.418Z,2.38
2023-04-27T02:14:13.116Z,2.30
2023-04-27T02:17:19.823Z,2.27
2023-04-27T02:20:25.981Z,2.25
2023-04-27T02:23:33.153Z,2.21
2023-04-27T02:26:43.202Z,2.24
2023-04-27T02:29:50.088Z,2.30
2023-04-27T02:32:56.460Z,2.33
2023-04-27T02:36:03.898Z,2.31
2023-04-27T02:39:09.403Z,2.35
2023-04-27T02:42:21.305Z,2.37
2023-04-27T02:45:26.811Z,2.40
2023-04-27T02:48:34.993Z,2.00
2023-04-27T02:51:43.283Z,2.47
2023-04-27T02:54:49.857Z,2.46
2023-04-27T02:57:58.352Z,2.46
2023-04-27T03:01:05.052Z,2.44
2023-04-27T03:04:11.202Z,2.42
2023-04-27T03:07:17.703Z,2.40
2023-04-27T03:10:23.400Z,2.27
2023-04-27T03:13:38.829Z,2.32
2023-04-27T03:16:45.255Z,2.26
2023-04-27T03:19:52.836Z,2.29
2023-04-27T03:22:58.339Z,2.20
2023-04-27T03:26:04.757Z,2.16
2023-04-27T03:29:13.326Z,2.08
2023-04-27T03:32:19.788Z,1.97
2023-04-27T03:35:25.366Z,1.94
2023-04-27T03:38:32.370Z,1.96
2023-04-27T03:41:37.921Z,1.92
2023-04-27T03:44:47.040Z,1.87
2023-04-27T03:47:53.492Z,1.90
2023-04-27T03:50:59.991Z,1.94
2023-04-27T03:54:05.914Z,1.94
2023-04-27T03:57:12.348Z,1.93
2023-04-27T04:00:21.547Z,1.94
2023-04-27T04:03:28.285Z,1.98
2023-04-27T04:06:34.090Z,2.04
2023-04-27T04:09:40.493Z,2.11
2023-04-27T04:12:46.037Z,2.17
2023-04-27T04:16:05.199Z,2.25
2023-04-27T04:19:12.300Z,2.31
2023-04-27T04:22:18.823Z,2.33
2023-04-27T04:25:26.390Z,2.35
2023-04-27T04:28:33.564Z,2.41
2023-04-27T04:31:42.572Z,2.41
2023-04-27T04:34:53.722Z,2.33
2023-04-27T04:38:00.805Z,2.35
2023-04-27T04:41:08.636Z,2.24
2023-04-27T04:44:14.226Z,2.48
2023-04-27T04:47:23.421Z,2.55
2023-04-27T04:50:31.331Z,2.57
2023-04-27T04:53:38.299Z,2.68
2023-04-27T04:56:43.781Z,2.79
2023-04-27T04:59:50.207Z,2.80
2023-04-27T05:02:59.065Z,2.80
2023-04-27T05:06:05.654Z,2.81
2023-04-27T05:09:11.457Z,2.93
2023-04-27T05:12:18.224Z,3.03
2023-04-27T05:15:23.694Z,3.04
2023-04-27T05:18:32.853Z,3.11
2023-04-27T05:21:38.645Z,3.24
2023-04-27T05:24:44.930Z,3.41
2023-04-27T05:27:50.429Z,3.52
2023-04-27T05:30:56.774Z,3.52
2023-04-27T05:34:05.078Z,3.61
2023-04-27T05:37:11.912Z,3.64
2023-04-27T05:40:18.681Z,3.56
2023-04-27T05:43:25.343Z,3.60
2023-04-27T05:46:30.884Z,3.78
2023-04-27T05:49:40.097Z,3.92
2023-04-27T05:52:45.563Z,3.99
2023-04-27T05:55:51.833Z,4.12
2023-04-27T05:58:57.264Z,4.27
2023-04-27T06:02:03.630Z,4.33
2023-04-27T06:05:14.113Z,4.24
2023-04-27T06:08:20.721Z,4.31
2023-04-27T06:11:26.263Z,4.40
2023-04-27T06:14:32.593Z,4.36
2023-04-27T06:17:38.317Z,4.43
2023-04-27T06:20:47.541Z,4.51
2023-04-27T06:23:53.191Z,4.64
2023-04-27T06:26:59.560Z,4.80
2023-04-27T06:30:05.366Z,4.86
2023-04-27T06:33:12.656Z,4.87
2023-04-27T06:36:21.510Z,4.97
2023-04-27T06:39:28.137Z,5.02
2023-04-27T06:42:33.849Z,5.04
2023-04-27T06:45:40.716Z,5.03
2023-04-27T06:48:46.741Z,5.08
2023-04-27T06:51:56.189Z,5.12
2023-04-27T06:55:01.885Z,5.22
2023-04-27T06:58:08.590Z,5.36
2023-04-27T07:01:14.215Z,5.42
2023-04-27T07:04:21.084Z,5.46
2023-04-27T07:07:29.625Z,5.48
2023-04-27T07:10:36.310Z,5.40
2023-04-27T07:13:42.173Z,5.41
2023-04-27T07:16:48.529Z,5.38
2023-04-27T07:19:54.889Z,5.49
2023-04-27T07:23:04.323Z,5.62
2023-04-27T07:26:10.276Z,5.77
2023-04-27T07:29:26.568Z,5.83
2023-04-27T07:32:32.633Z,5.67
2023-04-27T07:35:41.780Z,5.72
2023-04-27T07:38:50.133Z,5.89
2023-04-27T07:41:56.821Z,6.01
2023-04-27T07:45:02.373Z,6.11
2023-04-27T07:48:10.062Z,6.16
2023-04-27T07:51:16.709Z,6.35
2023-04-27T07:54:25.873Z,6.46
2023-04-27T07:57:31.872Z,6.49
2023-04-27T08:00:38.654Z,6.56
2023-04-27T08:03:44.471Z,6.73
2023-04-27T08:06:54.229Z,6.81
2023-04-27T08:10:03.345Z,6.68
2023-04-27T08:13:10.326Z,6.85
2023-04-27T08:16:15.848Z,6.95
2023-04-27T08:19:22.284Z,6.89
2023-04-27T08:22:27.793Z,6.86
2023-04-27T08:25:38.743Z,7.10
2023-04-27T08:28:44.301Z,6.95
2023-04-27T08:31:51.021Z,6.80
2023-04-27T08:34:56.551Z,6.85
2023-04-27T08:38:02.986Z,6.94
2023-04-27T08:41:21.347Z,6.86
2023-04-27T08:44:28.599Z,6.61
2023-04-27T08:47:42.518Z,6.41
2023-04-27T08:50:54.753Z,6.59
2023-04-27T08:54:02.419Z,6.75
2023-04-27T08:57:16.602Z,7.00
2023-04-27T09:00:24.683Z,7.33
2023-04-27T09:03:31.488Z,7.41
2023-04-27T09:06:38.973Z,7.46
2023-04-27T09:09:45.808Z,7.61
2023-04-27T09:13:02.556Z,7.65
2023-04-27T09:16:09.733Z,6.39
2023-04-27T09:19:15.969Z,7.24
2023-04-27T09:22:22.435Z,7.28
2023-04-27T09:25:34.890Z,7.09
2023-04-27T09:28:52.149Z,7.05
2023-04-27T09:31:57.742Z,7.12
2023-04-27T09:35:24.782Z,7.27
2023-04-27T09:38:32.971Z,7.59
2023-04-27T09:41:40.536Z,7.65
2023-04-27T09:44:48.839Z,7.86
2023-04-27T09:47:56.137Z,7.91
2023-04-27T09:51:01.888Z,8.09
2023-04-27T09:54:10.172Z,8.38
2023-04-27T09:57:36.837Z,8.45
2023-04-27T10:01:07.671Z,7.83
2023-04-27T10:04:46.074Z,7.87
2023-04-27T10:07:59.004Z,7.86
2023-04-27T10:11:04.727Z,7.80
2023-04-27T10:14:19.197Z,7.61
2023-04-27T10:17:35.350Z,7.73
2023-04-27T10:20:42.225Z,7.93
2023-04-27T10:23:52.168Z,8.02
2023-04-27T10:27:07.270Z,8.07
2023-04-27T10:30:20.969Z,8.21
2023-04-27T10:33:30.273Z,8.44
2023-04-27T10:36:41.238Z,8.56
2023-04-27T10:39:50.177Z,8.80
2023-04-27T10:42:57.224Z,8.34
2023-04-27T10:46:16.049Z,9.48
2023-04-27T10:49:25.260Z,9.39
2023-04-27T10:52:36.518Z,9.45
2023-04-27T10:55:42.423Z,9.14
2023-04-27T10:58:49.673Z,8.79
2023-04-27T11:01:58.455Z,8.71
2023-04-27T11:05:19.297Z,8.79
2023-04-27T11:08:25.044Z,8.70
2023-04-27T11:11:31.794Z,8.32
2023-04-27T11:14:38.916Z,8.40
2023-04-27T11:17:45.804Z,8.50
2023-04-27T11:20:58.531Z,8.67
2023-04-27T11:24:11.276Z,8.36
2023-04-27T11:27:18.274Z,8.50
2023-04-27T11:30:27.235Z,8.39
2023-04-27T11:33:33.269Z,8.95
2023-04-27T11:36:44.101Z,9.07
2023-04-27T11:39:50.094Z,8.99
2023-04-27T11:43:04.465Z,8.85
2023-04-27T11:46:11.408Z,8.64
2023-04-27T11:49:18.062Z,8.32
2023-04-27T11:52:32.167Z,8.11
2023-04-27T11:55:41.570Z,8.26
2023-04-27T11:58:47.896Z,8.17
2023-04-27T12:01:55.339Z,8.25
2023-04-27T12:05:03.259Z,8.42
2023-04-27T12:08:13.122Z,8.62
2023-04-27T12:11:21.819Z,8.90
2023-04-27T12:14:28.421Z,8.91
2023-04-27T12:17:34.159Z,8.93
2023-04-27T12:20:42.162Z,8.94
2023-04-27T12:23:51.099Z,8.97
2023-04-27T12:26:59.730Z,8.85
2023-04-27T12:30:05.579Z,8.93
2023-04-27T12:33:12.416Z,8.91
2023-04-27T12:36:18.255Z,8.88
2023-04-27T12:39:27.945Z,8.45
2023-04-27T12:42:33.632Z,8.54
2023-04-27T12:45:40.250Z,8.71
2023-04-27T12:48:46.715Z,8.84
2023-04-27T12:51:54.378Z,8.85
2023-04-27T12:55:04.974Z,8.84
2023-04-27T12:58:11.591Z,8.85
2023-04-27T13:01:17.860Z,8.81
2023-04-27T13:04:25.147Z,8.71
2023-04-27T13:07:31.386Z,8.60
2023-04-27T13:10:41.706Z,8.70
2023-04-27T13:13:48.301Z,8.86
2023-04-27T13:16:57.241Z,8.80
2023-04-27T13:20:03.304Z,8.83
2023-04-27T13:23:10.481Z,8.76
2023-04-27T13:26:19.518Z,8.67
2023-04-27T13:29:27.493Z,8.72
2023-04-27T13:32:34.046Z,8.74
2023-04-27T13:35:40.679Z,8.86
2023-04-27T13:38:46.837Z,9.04
2023-04-27T13:41:57.926Z,9.03
2023-04-27T13:45:05.227Z,9.10
2023-04-27T13:48:14.417Z,9.11
2023-04-27T13:51:20.595Z,9.09
2023-04-27T13:54:27.614Z,9.08
2023-04-27T13:57:36.609Z,9.03
2023-04-27T14:00:43.304Z,9.18
2023-04-27T14:03:49.269Z,9.21
2023-04-27T14:06:56.321Z,9.22
2023-04-27T14:10:02.143Z,9.06
2023-04-27T14:13:11.692Z,8.96
2023-04-27T14:16:17.633Z,8.88
2023-04-27T14:19:27.702Z,8.76
2023-04-27T14:22:33.690Z,8.62
2023-04-27T14:25:40.348Z,8.64
2023-04-27T14:28:50.307Z,8.63
2023-04-27T14:31:58.016Z,8.31
2023-04-27T14:35:03.943Z,8.27
2023-04-27T14:38:10.860Z,8.29
2023-04-27T14:41:16.868Z,8.31
2023-04-27T14:44:27.094Z,8.26
2023-04-27T14:47:33.205Z,8.33
2023-04-27T14:50:40.063Z,8.31
2023-04-27T14:53:47.129Z,8.39
2023-04-27T14:56:53.768Z,8.38
2023-04-27T15:00:06.667Z,8.48
2023-04-27T15:03:13.561Z,8.54
2023-04-27T15:06:19.917Z,8.60
2023-04-27T15:09:26.942Z,8.61
2023-04-27T15:12:32.991Z,8.70
2023-04-27T15:15:45.734Z,8.79
2023-04-27T15:18:51.766Z,8.87
2023-04-27T15:21:58.194Z,8.94
2023-04-27T15:25:05.473Z,9.15
2023-04-27T15:28:12.163Z,9.35
2023-04-27T15:31:20.642Z,9.46
2023-04-27T15:34:27.291Z,9.53
2023-04-27T15:37:33.229Z,9.48
2023-04-27T15:40:42.185Z,9.52
2023-04-27T15:43:47.865Z,9.48
2023-04-27T15:46:57.341Z,9.50
2023-04-27T15:50:03.628Z,9.41
2023-04-27T15:53:10.234Z,9.26
2023-04-27T15:56:16.620Z,9.05
2023-04-27T15:59:23.238Z,8.75
2023-04-27T16:02:33.125Z,8.77
2023-04-27T16:05:42.748Z,8.85
2023-04-27T16:08:48.651Z,8.83
2023-04-27T16:11:55.963Z,8.85
2023-04-27T16:15:01.840Z,8.85
2023-04-27T16:18:11.472Z,8.65
2023-04-27T16:21:18.770Z,8.52
2023-04-27T16:24:25.514Z,8.43
2023-04-27T16:27:31.390Z,8.46
2023-04-27T16:30:40.257Z,8.37
2023-04-27T16:33:50.525Z,8.44
2023-04-27T16:36:58.408Z,8.48
2023-04-27T16:40:07.071Z,8.50
2023-04-27T16:43:14.089Z,8.49
2023-04-27T16:46:20.204Z,8.57
2023-04-27T16:49:29.926Z,8.64
2023-04-27T16:52:36.087Z,8.71
2023-04-27T16:55:45.330Z,8.69
2023-04-27T16:58:51.399Z,8.68
2023-04-27T17:02:06.010Z,8.63
2023-04-27T17:05:22.224Z,8.62
2023-04-27T17:08:29.381Z,8.60
2023-04-27T17:11:35.192Z,8.50
2023-04-27T17:14:42.907Z,8.38
2023-04-27T17:17:48.924Z,8.30
2023-04-27T17:21:00.118Z,8.23
2023-04-27T17:24:07.186Z,8.22
2023-04-27T17:27:14.465Z,8.26
2023-04-27T17:30:20.317Z,8.28
2023-04-27T17:33:28.394Z,8.09
2023-04-27T17:36:37.461Z,8.00
2023-04-27T17:39:44.500Z,7.90
2023-04-27T17:42:56.668Z,7.90
2023-04-27T17:46:04.072Z,7.87
2023-04-27T17:49:13.983Z,7.82
2023-04-27T17:52:24.239Z,7.77
2023-04-27T17:55:30.417Z,7.70
2023-04-27T17:58:38.023Z,7.62
2023-04-27T18:01:48.666Z,7.51
2023-04-27T18:04:58.704Z,7.36
2023-04-27T18:08:07.617Z,7.23
2023-04-27T18:11:14.675Z,7.15
2023-04-27T18:14:20.837Z,7.10
2023-04-27T18:17:29.038Z,7.03
2023-04-27T18:20:35.297Z,7.02
2023-04-27T18:23:46.421Z,7.01
2023-04-27T18:26:53.839Z,7.00
2023-04-27T18:30:00.717Z,6.97
2023-04-27T18:33:07.559Z,6.98
2023-04-27T18:36:15.960Z,6.98
2023-04-27T18:39:25.166Z,6.96
2023-04-27T18:42:34.889Z,6.91
2023-04-27T18:45:41.063Z,6.89
2023-04-27T18:48:50.155Z,6.87
2023-04-27T18:51:56.245Z,6.85
2023-04-27T18:55:06.728Z,6.81
2023-04-27T18:58:13.051Z,6.77
2023-04-27T19:01:24.328Z,6.72
2023-04-27T19:04:31.950Z,6.68
2023-04-27T19:07:41.500Z,6.64
2023-04-27T19:10:54.972Z,6.62
2023-04-27T19:14:02.167Z,6.59
2023-04-27T19:17:08.753Z,6.52
2023-04-27T19:20:15.812Z,6.39
2023-04-27T19:23:22.490Z,6.25
2023-04-27T19:26:32.451Z,6.16
2023-04-27T19:29:54.428Z,6.05
2023-04-27T19:33:05.045Z,5.96
2023-04-27T19:36:12.483Z,5.89
2023-04-27T19:39:22.663Z,5.81
2023-04-27T19:42:34.224Z,5.81
2023-04-27T19:45:42.281Z,5.80
2023-04-27T19:48:49.024Z,5.79
2023-04-27T19:51:56.746Z,5.72
2023-04-27T19:55:03.653Z,5.62
2023-04-27T19:58:13.669Z,5.55
2023-04-27T20:01:22.242Z,5.50
2023-04-27T20:04:29.233Z,5.45
2023-04-27T20:07:35.744Z,5.41
2023-04-27T20:10:43.779Z,5.40
2023-04-27T20:13:53.026Z,5.36
2023-04-27T20:16:59.856Z,5.41
2023-04-27T20:20:10.352Z,5.43
2023-04-27T20:23:19.856Z,5.51
2023-04-27T20:26:26.422Z,5.59
2023-04-27T20:29:36.738Z,5.67
2023-04-27T20:32:42.726Z,5.71
2023-04-27T20:35:55.525Z,5.75
2023-04-27T20:39:05.796Z,5.78
2023-04-27T20:42:13.209Z,5.79
2023-04-27T20:45:22.166Z,5.80
2023-04-27T20:48:30.139Z,5.82
2023-04-27T20:51:36.903Z,5.79
2023-04-27T20:54:44.591Z,5.84
2023-04-27T20:57:50.962Z,5.85
2023-04-27T21:01:00.794Z,5.86
2023-04-27T21:04:09.637Z,5.90
2023-04-27T21:07:16.373Z,5.90
2023-04-27T21:10:22.315Z,5.88
2023-04-27T21:13:28.981Z,5.82
2023-04-27T21:16:37.787Z,5.77
2023-04-27T21:19:44.995Z,5.71
2023-04-27T21:22:50.868Z,5.64
2023-04-27T21:25:57.520Z,5.55
2023-04-27T21:29:05.961Z,5.44
2023-04-27T21:32:16.095Z,5.34
2023-04-27T21:35:21.960Z,5.24
2023-04-27T21:38:28.693Z,5.16
2023-04-27T21:41:34.445Z,5.12
2023-04-27T21:44:41.272Z,5.07
2023-04-27T21:47:49.939Z,5.01
2023-04-27T21:50:56.521Z,4.96
2023-04-27T21:54:02.179Z,4.93
2023-04-27T21:57:08.776Z,4.93
2023-04-27T22:00:17.619Z,4.95
2023-04-27T22:03:27.106Z,4.96
2023-04-27T22:06:33.965Z,5.00
2023-04-27T22:09:40.249Z,5.06
2023-04-27T22:12:47.196Z,5.13
2023-04-27T22:15:53.636Z,5.16
2023-04-27T22:19:02.999Z,5.20
2023-04-27T22:22:10.239Z,5.21
2023-04-27T22:25:16.356Z,5.16
2023-04-27T22:28:23.003Z,5.18
2023-04-27T22:31:28.726Z,5.17
2023-04-27T22:34:38.439Z,5.14
2023-04-27T22:37:44.875Z,5.12
2023-04-27T22:40:51.426Z,5.09
2023-04-27T22:43:57.296Z,5.08
2023-04-27T22:47:04.702Z,5.08
2023-04-27T22:50:14.610Z,5.10
2023-04-27T22:53:21.397Z,5.12
2023-04-27T22:56:27.096Z,5.17
2023-04-27T22:59:33.420Z,5.20
2023-04-27T23:02:39.275Z,5.21
2023-04-27T23:05:48.602Z,5.22
2023-04-27T23:08:54.100Z,5.24
2023-04-27T23:12:01.329Z,5.23
2023-04-27T23:15:07.412Z,5.23
2023-04-27T23:18:13.809Z,5.21
2023-04-27T23:21:22.150Z,5.20
2023-04-27T23:24:28.569Z,5.22
2023-04-27T23:27:34.330Z,5.19
2023-04-27T23:30:41.035Z,5.19
2023-04-27T23:33:46.571Z,5.18
2023-04-27T23:36:55.664Z,5.18
2023-04-27T23:40:01.369Z,5.20
2023-04-27T23:43:07.982Z,5.14
2023-04-27T23:46:13.474Z,5.14
2023-04-27T23:49:19.784Z,5.12
2023-04-27T23:52:28.048Z,5.13
2023-04-27T23:55:36.835Z,5.10
2023-04-27T23:58:42.323Z,5.10
